Time;durP1;ratioP1;P1;durP2;ratioP2;P2;SDS_P1;SDS_P2;PMS_P1;PMS_P2;Temp;Humidity;BMP_temperature;BMP_pressure;BME280_temperature;BME280_humidity;BME280_pressure;Samples;Min_cycle;Max_cycle;Signal;HPM_P1;HPM_P2
2021/04/17 00:02:11;;;;;;;94.10;54.55;;;;;;;6.96;72.38;100200.03;4932813;29;20126;-72
2021/04/17 00:04:39;;;;;;;97.88;58.63;;;;;;;6.93;72.58;100197.59;4933923;29;20047;-78
2021/04/17 00:07:06;;;;;;;95.70;52.00;;;;;;;6.95;72.41;100192.25;4934171;29;20413;-77
2021/04/17 00:09:33;;;;;;;105.35;63.13;;;;;;;6.91;72.55;100186.31;4932298;29;20060;-73
2021/04/17 00:12:03;;;;;;;106.38;59.67;;;;;;;6.89;72.57;100191.66;4933216;29;20060;-71
2021/04/17 00:14:32;;;;;;;117.88;66.00;;;;;;;6.84;72.72;100191.13;4933310;29;20708;-72
2021/04/17 00:16:58;;;;;;;123.80;67.75;;;;;;;6.81;72.70;100191.28;4933642;29;20052;-74
2021/04/17 00:19:25;;;;;;;132.75;73.40;;;;;;;6.82;72.80;100181.63;4934009;29;20536;-71
2021/04/17 00:21:51;;;;;;;110.38;61.30;;;;;;;6.82;72.54;100186.88;4933836;29;20052;-77
2021/04/17 00:24:18;;;;;;;124.88;67.65;;;;;;;6.87;72.57;100182.19;4938387;29;20048;-70
2021/04/17 00:26:44;;;;;;;128.48;69.88;;;;;;;6.82;72.49;100179.00;4945248;29;20107;-76
2021/04/17 00:29:12;;;;;;;133.82;72.68;;;;;;;6.87;72.48;100184.81;4943329;29;20068;-72
2021/04/17 00:31:39;;;;;;;133.55;66.30;;;;;;;6.82;72.49;100182.47;4943155;29;20048;-71
2021/04/17 00:34:06;;;;;;;132.77;69.75;;;;;;;6.79;72.79;100185.28;4945422;29;20058;-75
2021/04/17 00:36:33;;;;;;;120.20;64.38;;;;;;;6.82;72.62;100179.00;4940484;29;20058;-69
2021/04/17 00:38:59;;;;;;;145.15;79.10;;;;;;;6.83;72.57;100185.94;4943708;29;20107;-73
2021/04/17 00:41:26;;;;;;;128.80;65.53;;;;;;;6.84;72.58;100182.38;4941960;29;20071;-73
2021/04/17 00:43:53;;;;;;;124.07;64.28;;;;;;;6.83;72.66;100188.56;4939449;29;20055;-70
2021/04/17 00:46:20;;;;;;;137.10;68.85;;;;;;;6.78;72.66;100188.00;4937617;29;20115;-71
2021/04/17 00:48:47;;;;;;;121.78;65.05;;;;;;;6.79;72.62;100193.16;4937252;29;20107;-72
2021/04/17 00:51:14;;;;;;;136.82;61.45;;;;;;;6.77;72.62;100189.78;4938644;29;20587;-70
2021/04/17 00:53:41;;;;;;;134.85;67.82;;;;;;;6.78;72.61;100190.63;4935503;29;20043;-73
2021/04/17 00:56:10;;;;;;;121.43;64.22;;;;;;;6.78;72.62;100186.19;4937787;29;20047;-71
2021/04/17 00:58:40;;;;;;;128.05;55.67;;;;;;;6.83;72.50;100188.56;4939595;29;20048;-71
2021/04/17 01:01:08;;;;;;;120.07;61.42;;;;;;;6.86;72.32;100183.13;4939563;29;20047;-69
2021/04/17 01:03:49;;;;;;;134.90;68.25;;;;;;;6.85;72.35;100182.28;4940883;29;20059;-73
2021/04/17 01:06:21;;;;;;;118.70;61.72;;;;;;;6.86;72.22;100180.50;4938186;29;20050;-76
2021/04/17 01:08:54;;;;;;;133.20;71.55;;;;;;;6.78;72.31;100186.19;4936739;29;20488;-75
2021/04/17 01:11:28;;;;;;;132.52;61.95;;;;;;;6.76;72.52;100185.44;4935692;29;20051;-74
2021/04/17 01:13:56;;;;;;;136.45;67.05;;;;;;;6.79;72.40;100189.66;4939072;29;20040;-74
2021/04/17 01:16:23;;;;;;;120.88;61.15;;;;;;;6.78;72.36;100188.81;4936341;29;20055;-73
2021/04/17 01:18:52;;;;;;;130.82;59.22;;;;;;;6.82;72.38;100186.88;4935121;29;20051;-71
2021/04/17 01:21:19;;;;;;;132.45;68.78;;;;;;;6.80;72.31;100184.31;4935816;29;20119;-74
2021/04/17 01:23:49;;;;;;;117.60;59.40;;;;;;;6.82;72.39;100192.13;4935334;29;20058;-72
2021/04/17 01:26:18;;;;;;;123.53;58.45;;;;;;;6.81;72.34;100190.44;4935496;29;20055;-70
2021/04/17 01:28:48;;;;;;;123.50;57.30;;;;;;;6.82;72.34;100185.06;4935373;29;20144;-79
2021/04/17 01:31:19;;;;;;;106.55;50.72;;;;;;;6.88;72.19;100189.16;4933430;29;20052;-77
2021/04/17 01:33:48;;;;;;;113.00;53.33;;;;;;;6.92;72.07;100182.78;4935243;29;20052;-74
2021/04/17 01:36:16;;;;;;;113.10;58.33;;;;;;;6.90;72.07;100184.66;4936039;29;20048;-79
2021/04/17 01:38:47;;;;;;;119.93;62.00;;;;;;;6.87;72.16;100182.19;4933967;29;20079;-75
2021/04/17 01:41:17;;;;;;;113.85;49.28;;;;;;;6.89;72.28;100180.31;4935332;29;20051;-75
2021/04/17 01:43:47;;;;;;;94.63;48.83;;;;;;;6.92;72.03;100182.78;4933924;29;20195;-72
2021/04/17 01:46:17;;;;;;;97.93;45.67;;;;;;;6.97;72.05;100182.50;4934139;29;20119;-77
2021/04/17 01:48:45;;;;;;;106.38;47.55;;;;;;;7.01;71.85;100187.50;4934405;29;20548;-77
2021/04/17 01:51:13;;;;;;;98.95;46.63;;;;;;;7.06;71.76;100184.59;4933587;29;20047;-80
2021/04/17 01:53:42;;;;;;;97.10;48.25;;;;;;;7.03;71.63;100184.78;4933107;29;20150;-74
2021/04/17 01:56:10;;;;;;;144.65;68.47;;;;;;;6.98;71.91;100179.78;4934403;29;20059;-73
2021/04/17 01:58:40;;;;;;;142.98;76.03;;;;;;;6.83;72.19;100178.06;4935215;29;20048;-74
2021/04/17 02:01:08;;;;;;;149.93;70.72;;;;;;;6.81;72.28;100182.56;4931621;29;20095;-74
2021/04/17 02:03:36;;;;;;;135.77;65.07;;;;;;;6.82;72.36;100181.63;4939624;29;20048;-74
2021/04/17 02:06:04;;;;;;;147.68;73.18;;;;;;;6.83;72.39;100183.31;4941268;29;20079;-73
2021/04/17 02:08:35;;;;;;;146.57;68.28;;;;;;;6.83;72.29;100178.06;4937887;29;20058;-72
2021/04/17 02:11:02;;;;;;;156.57;68.60;;;;;;;6.82;72.33;100176.38;4938460;29;20052;-76
2021/04/17 02:13:29;;;;;;;141.30;68.88;;;;;;;6.80;72.40;100176.44;4936326;29;20103;-72
2021/04/17 02:15:58;;;;;;;144.77;70.28;;;;;;;6.78;72.33;100175.69;4933760;29;20047;-72
2021/04/17 02:18:28;;;;;;;158.20;80.72;;;;;;;6.75;72.38;100172.41;4934236;29;20125;-78
2021/04/17 02:21:03;;;;;;;146.05;68.90;;;;;;;6.75;72.45;100168.00;4932958;29;20484;-77
2021/04/17 02:23:30;;;;;;;167.75;79.32;;;;;;;6.72;72.70;100169.94;4931301;29;20060;-71
2021/04/17 02:25:57;;;;;;;138.00;71.97;;;;;;;6.72;72.63;100172.56;4931654;29;20055;-73
2021/04/17 02:28:25;;;;;;;142.90;70.55;;;;;;;6.75;72.51;100170.63;4931382;29;20052;-74
2021/04/17 02:30:52;;;;;;;151.05;79.38;;;;;;;6.72;72.56;100162.94;4930198;29;20052;-71
2021/04/17 02:33:19;;;;;;;139.60;70.90;;;;;;;6.59;73.06;100169.81;4931550;29;20055;-78
2021/04/17 02:35:46;;;;;;;147.77;77.53;;;;;;;6.62;72.85;100173.09;4930608;29;20048;-69
2021/04/17 02:38:12;;;;;;;128.68;61.53;;;;;;;6.72;72.69;100173.44;4931160;29;20048;-79
2021/04/17 02:40:39;;;;;;;141.02;72.60;;;;;;;6.72;72.68;100175.19;4930446;29;20469;-75
2021/04/17 02:43:05;;;;;;;129.57;64.13;;;;;;;6.65;72.91;100167.69;4930599;29;20081;-75
2021/04/17 02:45:34;;;;;;;129.02;63.28;;;;;;;6.76;72.52;100169.69;4930854;29;20043;-76
2021/04/17 02:48:01;;;;;;;126.40;62.42;;;;;;;6.79;72.34;100166.03;4930980;29;20051;-75
2021/04/17 02:50:28;;;;;;;123.85;69.60;;;;;;;6.73;72.52;100161.16;4931573;29;20055;-72
2021/04/17 02:52:55;;;;;;;119.00;60.15;;;;;;;6.78;72.39;100154.69;4930031;29;20043;-75
2021/04/17 02:55:21;;;;;;;132.07;69.18;;;;;;;6.78;72.33;100167.00;4930184;29;20087;-70
2021/04/17 02:57:48;;;;;;;135.65;64.50;;;;;;;6.79;72.32;100160.78;4930099;29;20134;-69
2021/04/17 03:00:17;;;;;;;120.93;63.70;;;;;;;6.75;72.33;100159.28;4930535;29;20066;-69
2021/04/17 03:02:44;;;;;;;131.18;64.93;;;;;;;6.75;72.59;100165.38;4929639;29;20048;-73
2021/04/17 03:05:13;;;;;;;115.35;59.88;;;;;;;6.74;72.49;100170.72;4930469;29;20122;-73
2021/04/17 03:07:40;;;;;;;126.72;62.72;;;;;;;6.77;72.34;100167.91;4932550;29;20106;-73
2021/04/17 03:10:08;;;;;;;122.90;60.38;;;;;;;6.70;72.54;100168.28;4930268;29;20059;-73
2021/04/17 03:12:35;;;;;;;114.57;59.58;;;;;;;6.70;72.57;100173.53;4931779;29;20077;-73
2021/04/17 03:15:02;;;;;;;125.82;67.22;;;;;;;6.70;72.45;100168.28;4931937;29;20058;-74
2021/04/17 03:17:28;;;;;;;125.28;66.97;;;;;;;6.62;72.66;100167.84;4929969;29;20127;-78
2021/04/17 03:19:55;;;;;;;127.70;71.28;;;;;;;6.61;72.80;100171.44;4932836;29;20059;-74
2021/04/17 03:22:21;;;;;;;127.85;72.18;;;;;;;6.62;72.75;100165.25;4931842;29;20461;-78
2021/04/17 03:24:49;;;;;;;130.65;72.68;;;;;;;6.63;72.70;100171.34;4930709;29;20056;-73
2021/04/17 03:27:15;;;;;;;120.70;57.08;;;;;;;6.66;72.71;100166.78;4931358;29;20123;-76
2021/04/17 03:29:42;;;;;;;127.45;72.28;;;;;;;6.61;72.78;100168.81;4931019;29;20522;-70
2021/04/17 03:32:08;;;;;;;135.45;72.32;;;;;;;6.53;73.16;100162.31;4928458;29;20047;-76
2021/04/17 03:34:35;;;;;;;128.68;62.15;;;;;;;6.53;73.17;100171.00;4930152;29;20507;-78
2021/04/17 03:37:02;;;;;;;126.82;67.32;;;;;;;6.60;73.09;100164.47;4931484;29;20052;-74
2021/04/17 03:39:28;;;;;;;129.40;67.47;;;;;;;6.59;73.00;100160.19;4930842;29;20079;-75
2021/04/17 03:41:56;;;;;;;124.18;64.63;;;;;;;6.55;73.12;100169.16;4930688;29;20142;-75
2021/04/17 03:44:22;;;;;;;118.40;59.70;;;;;;;6.54;73.22;100164.84;4930664;29;20054;-71
2021/04/17 03:46:49;;;;;;;138.13;78.22;;;;;;;6.54;73.30;100172.72;4931209;29;20051;-77
2021/04/17 03:49:15;;;;;;;117.65;62.22;;;;;;;6.54;73.34;100172.72;4930768;29;20055;-77
2021/04/17 03:51:42;;;;;;;112.60;52.60;;;;;;;6.70;72.68;100178.78;4930968;29;20066;-71
2021/04/17 03:54:08;;;;;;;114.93;64.22;;;;;;;6.74;72.71;100173.34;4930481;29;20059;-74
2021/04/17 03:56:35;;;;;;;116.22;60.75;;;;;;;6.64;73.07;100181.72;4929577;29;20060;-75
2021/04/17 03:59:02;;;;;;;102.22;55.78;;;;;;;6.57;73.34;100185.69;4913403;29;20143;-72
2021/04/17 04:01:29;;;;;;;111.40;56.22;;;;;;;6.61;73.13;100181.06;4928559;29;20107;-76
2021/04/17 04:03:57;;;;;;;98.10;50.45;;;;;;;6.73;72.70;100180.38;4929534;29;20054;-77
2021/04/17 04:06:24;;;;;;;101.18;51.80;;;;;;;6.77;72.54;100179.28;4929375;29;20075;-73
2021/04/17 04:08:50;;;;;;;103.35;49.55;;;;;;;6.83;72.48;100186.78;4929514;29;20412;-71
2021/04/17 04:11:17;;;;;;;98.55;54.70;;;;;;;6.80;72.64;100188.75;4927488;29;20056;-77
2021/04/17 04:13:43;;;;;;;93.10;50.17;;;;;;;6.79;72.49;100189.66;4928668;29;20048;-75
2021/04/17 04:16:11;;;;;;;79.20;43.33;;;;;;;6.81;72.56;100185.19;4929819;29;20059;-78
2021/04/17 04:18:37;;;;;;;80.88;42.28;;;;;;;6.84;72.60;100187.63;4933407;29;20055;-79
2021/04/17 04:21:04;;;;;;;86.97;45.72;;;;;;;6.84;72.50;100188.50;4931658;29;20051;-78
2021/04/17 04:23:31;;;;;;;86.88;45.80;;;;;;;6.88;72.39;100191.78;4929112;29;20052;-74
2021/04/17 04:25:57;;;;;;;91.97;49.22;;;;;;;6.87;72.39;100196.16;4929924;29;20047;-74
2021/04/17 04:28:24;;;;;;;86.90;44.83;;;;;;;6.85;72.50;100191.94;4930631;29;20470;-79
2021/04/17 04:30:50;;;;;;;96.78;47.08;;;;;;;6.89;72.41;100198.72;4929948;29;20074;-77
2021/04/17 04:33:18;;;;;;;85.60;45.97;;;;;;;6.90;72.33;100197.78;4934822;29;20043;-71
2021/04/17 04:35:44;;;;;;;109.60;53.60;;;;;;;6.92;72.31;100198.53;4932621;29;20048;-73
2021/04/17 04:38:10;;;;;;;92.15;50.95;;;;;;;6.90;72.27;100200.41;4935443;29;20067;-78
2021/04/17 04:40:37;;;;;;;95.97;50.65;;;;;;;6.91;72.50;100191.59;4934193;29;20051;-78
2021/04/17 04:43:03;;;;;;;93.53;48.78;;;;;;;6.90;72.45;100195.16;4933132;29;20127;-74
2021/04/17 04:45:31;;;;;;;85.43;43.10;;;;;;;6.94;72.35;100203.72;4934686;29;20056;-76
2021/04/17 04:47:58;;;;;;;91.72;50.92;;;;;;;6.95;72.25;100206.25;4936247;29;20548;-76
2021/04/17 04:50:25;;;;;;;92.63;50.40;;;;;;;6.91;72.43;100202.09;4933256;29;20055;-71
2021/04/17 04:52:53;;;;;;;81.32;43.80;;;;;;;7.05;72.13;100210.00;4933735;29;20054;-79
2021/04/17 04:55:20;;;;;;;88.55;45.60;;;;;;;7.14;71.98;100213.88;4935197;29;20086;-73
2021/04/17 04:57:46;;;;;;;89.07;43.72;;;;;;;7.18;72.01;100214.53;4933974;29;20055;-73
2021/04/17 05:00:13;;;;;;;94.15;49.85;;;;;;;7.18;71.82;100204.03;4933962;29;20044;-73
2021/04/17 05:02:40;;;;;;;86.57;45.80;;;;;;;7.15;71.90;100212.09;4932215;29;20079;-75
2021/04/17 05:05:07;;;;;;;90.68;43.47;;;;;;;7.14;72.00;100211.25;4934188;29;20066;-80
2021/04/17 05:07:34;;;;;;;85.30;43.85;;;;;;;7.17;71.90;100210.25;4932927;29;20050;-72
2021/04/17 05:10:01;;;;;;;80.90;38.63;;;;;;;7.16;72.04;100211.16;4936003;29;20055;-72
2021/04/17 05:12:28;;;;;;;99.03;52.75;;;;;;;7.12;72.07;100207.88;4933941;29;20062;-76
2021/04/17 05:14:54;;;;;;;105.00;54.85;;;;;;;7.14;72.06;100207.78;4935665;29;20083;-78
2021/04/17 05:17:21;;;;;;;95.22;50.58;;;;;;;7.19;71.99;100213.63;4933550;29;20077;-73
2021/04/17 05:19:47;;;;;;;107.68;52.03;;;;;;;7.22;71.92;100216.91;4932714;29;20048;-77
2021/04/17 05:22:14;;;;;;;101.20;50.90;;;;;;;7.23;71.91;100204.63;4935382;29;20115;-82
2021/04/17 05:24:41;;;;;;;123.13;66.85;;;;;;;7.22;72.02;100208.16;4932696;29;20138;-81
2021/04/17 05:27:08;;;;;;;107.75;54.90;;;;;;;7.26;71.90;100213.16;4933701;29;20048;-78
2021/04/17 05:29:35;;;;;;;115.80;58.60;;;;;;;7.30;71.79;100221.69;4932251;29;20071;-70
2021/04/17 05:32:01;;;;;;;112.82;56.17;;;;;;;7.31;71.97;100215.53;4931947;29;20051;-80
2021/04/17 05:34:28;;;;;;;115.53;56.58;;;;;;;7.37;71.87;100219.56;4933447;29;20501;-76
2021/04/17 05:36:54;;;;;;;123.15;61.95;;;;;;;7.30;71.97;100221.69;4933943;29;20058;-81
2021/04/17 05:39:20;;;;;;;130.15;71.07;;;;;;;7.30;71.88;100220.88;4936481;29;20081;-72
2021/04/17 05:41:48;;;;;;;116.60;61.08;;;;;;;7.24;72.20;100214.19;4931986;29;20047;-73
2021/04/17 05:44:15;;;;;;;117.10;52.72;;;;;;;7.30;72.00;100216.44;4930858;29;20102;-78
2021/04/17 05:46:43;;;;;;;127.22;56.85;;;;;;;7.31;71.95;100220.78;4932189;29;20060;-77
2021/04/17 05:49:10;;;;;;;135.63;56.47;;;;;;;7.31;72.05;100223.41;4932938;29;20095;-69
2021/04/17 05:51:40;;;;;;;131.05;58.33;;;;;;;7.35;72.11;100217.03;4931330;29;20054;-71
2021/04/17 05:54:08;;;;;;;107.50;50.97;;;;;;;7.40;71.95;100219.34;4896105;29;20111;-72
2021/04/17 05:56:34;;;;;;;134.88;63.65;;;;;;;7.47;71.81;100226.81;4910396;29;20043;-66
2021/04/17 05:59:03;;;;;;;137.82;62.05;;;;;;;7.54;71.71;100222.00;4927431;29;20688;-69
2021/04/17 06:01:29;;;;;;;139.05;62.10;;;;;;;7.56;71.79;100221.91;4925131;29;20048;-68
2021/04/17 06:03:55;;;;;;;130.65;60.90;;;;;;;7.63;71.66;100225.88;4927722;29;20489;-68
2021/04/17 06:06:22;;;;;;;135.85;57.08;;;;;;;7.67;71.49;100227.38;4928110;29;20078;-72
2021/04/17 06:08:48;;;;;;;121.97;56.13;;;;;;;7.68;71.48;100221.19;4927546;29;20055;-71
2021/04/17 06:11:16;;;;;;;138.60;63.22;;;;;;;7.61;71.70;100225.13;4928629;29;20047;-70
2021/04/17 06:13:43;;;;;;;134.23;60.90;;;;;;;7.72;71.49;100230.56;4930072;29;20051;-73
2021/04/17 06:16:10;;;;;;;141.90;63.50;;;;;;;7.69;71.50;100219.38;4932013;29;20513;-78
2021/04/17 06:18:37;;;;;;;132.93;58.22;;;;;;;7.70;71.44;100224.53;4930670;29;20052;-75
2021/04/17 06:21:04;;;;;;;129.45;60.50;;;;;;;7.70;71.54;100228.97;4927884;29;20408;-72
2021/04/17 06:23:31;;;;;;;142.20;64.30;;;;;;;7.76;71.42;100229.44;4927608;29;20058;-70
2021/04/17 06:25:57;;;;;;;140.30;61.83;;;;;;;7.80;71.45;100228.31;4932678;29;20056;-74
2021/04/17 06:28:25;;;;;;;138.55;61.78;;;;;;;7.81;71.46;100229.16;4892020;29;20083;-75
2021/04/17 06:30:51;;;;;;;135.07;59.28;;;;;;;7.78;71.38;100232.81;4907342;29;20052;-73
2021/04/17 06:33:19;;;;;;;145.85;65.38;;;;;;;7.73;71.68;100236.69;4910804;29;20637;-74
2021/04/17 06:35:45;;;;;;;137.23;63.72;;;;;;;7.70;71.70;100242.13;4909471;29;20512;-70
2021/04/17 06:38:14;;;;;;;146.90;71.00;;;;;;;7.70;71.65;100247.38;4908245;29;20056;-72
2021/04/17 06:40:43;;;;;;;147.63;63.63;;;;;;;7.74;71.62;100246.25;4925561;29;20058;-78
2021/04/17 06:43:10;;;;;;;132.88;54.72;;;;;;;7.81;71.43;100240.53;4913084;29;20103;-75
2021/04/17 06:45:38;;;;;;;135.65;61.90;;;;;;;7.80;71.51;100238.84;4928473;29;20062;-75
2021/04/17 06:48:06;;;;;;;151.23;69.75;;;;;;;7.78;71.59;100239.88;4926640;29;20059;-73
2021/04/17 06:50:35;;;;;;;140.82;61.50;;;;;;;7.81;71.50;100230.03;4923656;29;20060;-77
2021/04/17 06:53:05;;;;;;;138.75;61.88;;;;;;;7.84;71.55;100237.69;4927103;29;20043;-76
2021/04/17 06:55:31;;;;;;;139.20;61.97;;;;;;;7.77;71.62;100233.75;4929053;29;20130;-76
2021/04/17 06:57:59;;;;;;;145.23;70.07;;;;;;;7.85;71.49;100231.50;4926910;29;20067;-74
2021/04/17 07:00:29;;;;;;;160.43;77.72;;;;;;;7.84;71.51;100240.31;4929633;29;20040;-81
2021/04/17 07:02:57;;;;;;;156.45;65.93;;;;;;;7.94;71.43;100239.75;4933118;29;20488;-81
2021/04/17 07:05:25;;;;;;;167.18;76.13;;;;;;;7.97;71.43;100240.41;4931448;29;20198;-71
2021/04/17 07:07:55;;;;;;;149.32;64.45;;;;;;;8.11;71.35;100244.00;4932151;29;20048;-77
2021/04/17 07:10:21;;;;;;;140.75;59.85;;;;;;;8.13;71.07;100244.72;4934885;29;20044;-77
2021/04/17 07:12:49;;;;;;;128.68;58.00;;;;;;;8.13;71.12;100247.38;4935786;29;20096;-82
2021/04/17 07:15:16;;;;;;;146.85;63.83;;;;;;;8.19;71.04;100247.84;4933493;29;20059;-75
2021/04/17 07:17:43;;;;;;;144.57;73.63;;;;;;;8.15;71.04;100246.31;4926100;29;20043;-85
2021/04/17 07:20:12;;;;;;;138.57;58.15;;;;;;;8.11;71.21;100255.34;4933885;29;20187;-82
2021/04/17 07:22:41;;;;;;;137.65;58.25;;;;;;;8.07;71.25;100251.22;4937124;29;20055;-77
2021/04/17 07:25:22;;;;;;;166.70;68.40;;;;;;;8.14;71.16;100251.66;4934186;29;20048;-79
2021/04/17 07:27:51;;;;;;;166.32;70.55;;;;;;;8.13;71.07;100250.84;4932083;29;20059;-81
2021/04/17 07:30:30;;;;;;;171.98;80.45;;;;;;;8.13;71.20;100250.84;4939156;29;20079;-77
2021/04/17 07:33:20;;;;;;;177.45;76.60;;;;;;;8.12;71.23;100256.19;4933403;29;20054;-82
2021/04/17 07:35:52;;;;;;;154.80;77.13;;;;;;;8.15;71.15;100259.47;4939468;29;20042;-79
2021/04/17 07:38:23;;;;;;;144.40;64.38;;;;;;;8.20;71.12;100256.56;4941349;28;20066;-86
2021/04/17 07:41:04;;;;;;;166.82;67.50;;;;;;;8.32;71.03;100265.47;4937191;29;20262;-76
2021/04/17 07:43:48;;;;;;;140.57;60.35;;;;;;;8.32;70.80;100268.97;4937238;29;20560;-76
2021/04/17 07:46:15;;;;;;;155.52;69.88;;;;;;;8.27;70.63;100268.41;4936548;29;20044;-81
2021/04/17 07:48:43;;;;;;;164.50;73.95;;;;;;;8.26;70.80;100266.69;4935235;29;20055;-72
2021/04/17 07:51:09;;;;;;;158.85;68.20;;;;;;;8.27;70.81;100265.75;4939080;29;20051;-76
2021/04/17 07:53:37;;;;;;;158.05;69.60;;;;;;;8.29;70.78;100276.19;4936363;29;20075;-74
2021/04/17 07:56:25;;;;;;;150.55;62.17;;;;;;;8.34;70.94;100274.97;4934614;29;20044;-79
2021/04/17 07:58:55;;;;;;;164.15;71.10;;;;;;;8.32;70.60;100271.59;4934912;29;20048;-74
2021/04/17 08:01:23;;;;;;;156.38;64.40;;;;;;;8.36;70.65;100270.44;4896150;29;20082;-75
2021/04/17 08:03:51;;;;;;;150.82;65.13;;;;;;;8.40;70.60;100277.19;4933481;29;20093;-76
2021/04/17 08:06:18;;;;;;;151.55;70.90;;;;;;;8.41;70.72;100272.81;4936703;29;20047;-79
2021/04/17 08:08:45;;;;;;;161.30;65.18;;;;;;;8.45;70.72;100276.94;4934240;29;20082;-79
2021/04/17 08:11:12;;;;;;;174.30;76.68;;;;;;;8.55;70.46;100282.47;4934694;29;20044;-80
2021/04/17 08:13:41;;;;;;;160.93;66.93;;;;;;;8.48;70.72;100274.13;4938257;29;20432;-80
2021/04/17 08:16:09;;;;;;;155.55;63.67;;;;;;;8.54;70.60;100284.25;4941399;29;20063;-80
2021/04/17 08:18:38;;;;;;;167.60;71.60;;;;;;;8.59;70.48;100278.72;4920623;29;20075;-86
2021/04/17 08:21:08;;;;;;;148.95;64.43;;;;;;;8.67;70.44;100275.59;4942793;29;20086;-84
2021/04/17 08:23:37;;;;;;;146.35;62.95;;;;;;;8.75;70.32;100278.56;4938071;29;20115;-84
2021/04/17 08:26:08;;;;;;;143.27;60.95;;;;;;;8.99;69.89;100282.25;4938263;29;20140;-83
2021/04/17 08:28:42;;;;;;;170.27;74.32;;;;;;;9.06;69.65;100274.78;4941444;29;20162;-82
2021/04/17 08:31:23;;;;;;;159.00;80.80;;;;;;;8.92;70.16;100280.94;4897663;29;20078;-80
2021/04/17 08:34:17;;;;;;;142.10;59.97;;;;;;;8.97;70.06;100273.59;4934732;29;20048;-80
2021/04/17 08:36:48;;;;;;;166.88;68.30;;;;;;;9.04;69.73;100276.69;4935931;29;20058;-80
2021/04/17 08:39:44;;;;;;;137.05;59.83;;;;;;;9.12;69.99;100287.53;4932594;29;20056;-80
2021/04/17 08:42:15;;;;;;;133.43;63.73;;;;;;;9.05;69.52;100286.25;4933218;29;20261;-81
2021/04/17 08:44:47;;;;;;;146.40;61.70;;;;;;;9.04;69.60;100284.59;4930628;29;20319;-81
2021/04/17 08:47:35;;;;;;;143.30;63.50;;;;;;;9.10;69.52;100283.34;4933637;29;20047;-79
2021/04/17 08:50:26;;;;;;;153.00;64.25;;;;;;;9.22;69.61;100287.78;4937532;29;20044;-81
2021/04/17 08:53:01;;;;;;;138.63;65.85;;;;;;;9.41;69.10;100290.03;4939179;29;20325;-78
2021/04/17 08:55:30;;;;;;;119.53;54.58;;;;;;;9.47;68.68;100284.38;4934821;29;20051;-81
2021/04/17 08:58:15;;;;;;;128.38;57.15;;;;;;;9.51;68.65;100287.63;4937106;29;20056;-81
2021/04/17 09:01:04;;;;;;;112.20;52.03;;;;;;;9.50;68.62;100283.31;4935276;29;20134;-80
2021/04/17 09:03:45;;;;;;;111.60;53.67;;;;;;;9.62;68.50;100281.63;4936573;29;20488;-80
2021/04/17 09:06:40;;;;;;;111.85;53.88;;;;;;;9.69;68.59;100281.09;4938832;29;20134;-82
2021/04/17 09:09:26;;;;;;;124.68;56.92;;;;;;;9.77;68.78;100284.03;4948519;29;20513;-81
2021/04/17 09:11:54;;;;;;;119.95;60.95;;;;;;;9.75;68.28;100279.84;4937052;29;20063;-78
2021/04/17 09:14:50;;;;;;;126.45;57.50;;;;;;;9.77;68.67;100278.78;4932794;29;20056;-79
2021/04/17 09:17:54;;;;;;;116.83;54.30;;;;;;;9.95;68.45;100286.38;4935388;28;20108;-80
2021/04/17 09:20:39;;;;;;;110.15;58.92;;;;;;;10.05;67.76;100287.44;4917980;29;20120;-79
2021/04/17 09:23:06;;;;;;;111.28;53.35;;;;;;;10.09;67.55;100277.50;4915997;29;20909;-77
2021/04/17 09:25:39;;;;;;;80.25;43.30;;;;;;;10.24;67.51;100281.69;4911278;29;20056;-81
2021/04/17 09:28:05;;;;;;;73.13;41.10;;;;;;;10.51;66.93;100283.34;4910940;29;20135;-79
2021/04/17 09:30:32;;;;;;;75.68;42.10;;;;;;;10.62;66.25;100277.28;4915113;29;20082;-79
2021/04/17 09:32:59;;;;;;;84.30;46.50;;;;;;;10.57;66.55;100288.22;4914909;29;20052;-77
2021/04/17 09:35:28;;;;;;;108.20;54.67;;;;;;;10.57;66.85;100288.22;4919043;29;20056;-80
2021/04/17 09:38:29;;;;;;;108.32;59.50;;;;;;;10.51;66.93;100288.63;4913550;29;20509;-79
2021/04/17 09:41:00;;;;;;;106.32;54.40;;;;;;;10.43;66.97;100296.28;4874170;29;20052;-81
2021/04/17 09:43:29;;;;;;;98.82;50.55;;;;;;;10.40;66.95;100296.50;4884431;29;20056;-80
2021/04/17 09:45:57;;;;;;;79.38;41.20;;;;;;;10.40;67.27;100289.41;4877093;29;20072;-79
2021/04/17 09:48:25;;;;;;;71.95;36.85;;;;;;;10.58;66.97;100294.34;4879443;29;20072;-79
2021/04/17 09:50:57;;;;;;;75.80;41.50;;;;;;;10.75;66.55;100291.31;4888406;29;20118;-77
2021/04/17 09:53:31;;;;;;;78.03;42.15;;;;;;;10.70;66.55;100294.28;4879140;29;20077;-79
2021/04/17 09:56:01;;;;;;;73.65;44.35;;;;;;;10.75;66.36;100288.69;4880755;29;20497;-81
2021/04/17 09:58:30;;;;;;;67.22;38.10;;;;;;;10.88;66.17;100297.38;4850041;29;20052;-78
2021/04/17 10:01:06;;;;;;;69.60;39.97;;;;;;;10.90;65.88;100289.34;4883398;29;20053;-77
2021/04/17 10:03:36;;;;;;;77.30;42.80;;;;;;;10.90;65.94;100294.63;4881722;29;20116;-79
2021/04/17 10:06:22;;;;;;;67.97;39.47;;;;;;;11.04;66.16;100293.63;4881531;29;20113;-83
2021/04/17 10:08:51;;;;;;;73.53;47.00;;;;;;;11.31;65.33;100292.50;4881189;29;20053;-80
2021/04/17 10:11:23;;;;;;;64.80;39.70;;;;;;;11.29;65.26;100290.84;4877993;29;20053;-78
2021/04/17 10:13:50;;;;;;;64.88;37.83;;;;;;;11.41;64.93;100293.50;4879315;29;20053;-79
2021/04/17 10:16:25;;;;;;;64.70;37.72;;;;;;;11.53;65.17;100291.75;4906104;29;20111;-79
2021/04/17 10:18:52;;;;;;;73.40;44.25;;;;;;;11.25;64.52;100293.81;4936978;29;20749;-79
2021/04/17 10:24:28;;;;;;;56.22;35.30;;;;;;;11.06;65.65;100299.66;4922474;29;20052;-77
2021/04/17 10:27:05;;;;;;;58.75;40.28;;;;;;;11.05;66.18;100293.50;4920233;29;20052;-79
2021/04/17 10:29:46;;;;;;;62.40;36.38;;;;;;;11.08;66.11;100292.44;4919779;28;20048;-79
2021/04/17 10:32:16;;;;;;;60.30;37.97;;;;;;;11.20;65.78;100286.25;4923740;29;20689;-79
2021/04/17 10:34:46;;;;;;;63.55;40.25;;;;;;;11.24;65.55;100302.72;4922940;29;20051;-80
2021/04/17 10:37:15;;;;;;;51.55;32.08;;;;;;;11.28;65.30;100294.44;4920544;29;20051;-78
2021/04/17 10:39:59;;;;;;;51.88;32.45;;;;;;;11.82;64.79;100302.75;4922128;29;20052;-77
2021/04/17 10:42:25;;;;;;;49.33;29.92;;;;;;;12.27;63.21;100297.50;4921327;29;20048;-76
2021/04/17 10:44:58;;;;;;;47.90;28.67;;;;;;;12.41;63.07;100304.38;4919169;29;20066;-78
2021/04/17 10:47:25;;;;;;;42.85;27.98;;;;;;;12.41;62.84;100307.03;4919375;29;20188;-79
2021/04/17 10:49:52;;;;;;;39.97;23.95;;;;;;;12.51;63.07;100302.66;4917831;29;20064;-77
2021/04/17 10:52:27;;;;;;;34.45;21.15;;;;;;;12.50;63.71;100308.09;4919195;29;20056;-77
2021/04/17 10:54:56;;;;;;;47.15;28.83;;;;;;;12.33;63.47;100312.06;4927480;29;20048;-78
2021/04/17 10:57:25;;;;;;;48.97;30.60;;;;;;;12.13;63.83;100311.81;4938927;29;20052;-80
2021/04/17 10:59:55;;;;;;;48.13;28.75;;;;;;;12.08;64.33;100319.28;4937192;29;20044;-80
2021/04/17 11:02:35;;;;;;;38.42;25.40;;;;;;;12.10;64.45;100317.38;4935288;29;20492;-81
2021/04/17 11:05:05;;;;;;;43.60;28.63;;;;;;;12.12;64.02;100314.59;4933897;29;20059;-79
2021/04/17 11:07:39;;;;;;;37.25;22.58;;;;;;;11.96;64.11;100320.25;4932970;29;20067;-77
2021/04/17 11:10:09;;;;;;;35.67;24.00;;;;;;;11.90;64.56;100321.53;4936890;29;20126;-80
2021/04/17 11:12:38;;;;;;;38.92;23.55;;;;;;;11.91;64.62;100323.25;4937375;29;20655;-78
2021/04/17 11:15:16;;;;;;;39.38;23.35;;;;;;;11.87;64.83;100319.13;4934886;29;20095;-79
2021/04/17 11:17:43;;;;;;;34.80;24.23;;;;;;;11.96;64.50;100322.91;4932730;29;20428;-81
2021/04/17 11:20:19;;;;;;;42.20;23.83;;;;;;;12.12;64.55;100325.19;4934710;29;20090;-80
2021/04/17 11:22:46;;;;;;;41.08;26.48;;;;;;;12.19;64.18;100321.09;4933898;29;20134;-81
2021/04/17 11:25:14;;;;;;;41.28;23.83;;;;;;;12.24;64.37;100324.22;4931948;29;20505;-81